Time;durP1;ratioP1;P1;durP2;ratioP2;P2;SDS_P1;SDS_P2;PMS_P1;PMS_P2;Temp;Humidity;BMP_temperature;BMP_pressure;BME280_temperature;BME280_humidity;BME280_pressure;Samples;Min_cycle;Max_cycle;Signal;HPM_P1;HPM_P2
2020/12/30 00:01:31;;;;;;;0.38;0.00;;;5.50;99.90;;;;;;5028472;28;20040;-53
2020/12/30 00:03:57;;;;;;;0.00;0.00;;;5.50;99.90;;;;;;5028057;28;20037;-56
2020/12/30 00:06:23;;;;;;;0.77;0.10;;;5.50;99.90;;;;;;5027818;28;20057;-55
2020/12/30 00:08:49;;;;;;;2.22;0.00;;;5.50;99.90;;;;;;5028320;28;20234;-54
2020/12/30 00:11:17;;;;;;;0.25;0.00;;;5.50;99.90;;;;;;5027848;28;20416;-54
2020/12/30 00:13:43;;;;;;;0.25;0.10;;;5.40;99.90;;;;;;5026175;28;20037;-53
2020/12/30 00:16:09;;;;;;;0.85;0.10;;;5.30;99.90;;;;;;5027770;28;20038;-57
2020/12/30 00:18:35;;;;;;;2.75;0.10;;;5.30;99.90;;;;;;5028007;28;20120;-56
2020/12/30 00:21:00;;;;;;;0.57;0.05;;;5.30;99.90;;;;;;5027585;28;20194;-55
2020/12/30 00:23:26;;;;;;;0.30;0.00;;;5.30;99.90;;;;;;5027654;28;20381;-60
2020/12/30 00:25:52;;;;;;;1.38;0.00;;;5.40;99.90;;;;;;5026518;28;20037;-55
2020/12/30 00:28:18;;;;;;;0.22;0.00;;;5.40;99.90;;;;;;5026911;28;20033;-50
2020/12/30 00:30:44;;;;;;;0.70;0.00;;;5.50;99.90;;;;;;5028223;28;20503;-57
2020/12/30 00:33:10;;;;;;;0.45;0.00;;;5.40;99.90;;;;;;5027929;28;20025;-56
2020/12/30 00:35:36;;;;;;;0.10;0.00;;;5.40;99.90;;;;;;5031280;28;20055;-57
2020/12/30 00:38:02;;;;;;;0.13;0.00;;;5.40;99.90;;;;;;5031759;28;20037;-52
2020/12/30 00:40:28;;;;;;;0.32;0.10;;;5.40;99.90;;;;;;5031821;28;20030;-51
2020/12/30 00:42:54;;;;;;;0.20;0.05;;;5.40;99.90;;;;;;5031666;28;20118;-58
2020/12/30 00:45:20;;;;;;;0.13;0.00;;;5.40;99.90;;;;;;5031720;28;20113;-51
2020/12/30 00:47:46;;;;;;;0.50;0.00;;;5.40;99.90;;;;;;5031724;28;20071;-56
2020/12/30 00:50:11;;;;;;;0.10;0.00;;;5.40;99.90;;;;;;5031678;28;20025;-52
2020/12/30 00:52:37;;;;;;;0.93;0.00;;;5.30;99.90;;;;;;5042201;28;20701;-55
2020/12/30 00:55:04;;;;;;;0.45;0.08;;;5.40;99.90;;;;;;5032286;28;20125;-56
2020/12/30 00:57:30;;;;;;;1.98;0.10;;;5.30;99.90;;;;;;5028439;28;20029;-53
2020/12/30 00:59:55;;;;;;;0.60;0.10;;;5.30;99.90;;;;;;5027747;28;20359;-55
2020/12/30 01:02:21;;;;;;;0.40;0.10;;;5.30;99.90;;;;;;5030006;28;20033;-51
2020/12/30 01:04:47;;;;;;;0.20;0.00;;;5.30;99.90;;;;;;5030444;28;20520;-55
2020/12/30 01:07:17;;;;;;;0.30;0.10;;;5.30;99.90;;;;;;5030894;28;20084;-55
2020/12/30 01:09:43;;;;;;;0.30;0.00;;;5.40;99.90;;;;;;5030886;28;20508;-54
2020/12/30 01:12:09;;;;;;;0.50;0.10;;;5.40;99.90;;;;;;5031275;28;20032;-54
2020/12/30 01:14:35;;;;;;;0.20;0.08;;;5.30;99.90;;;;;;5031215;28;20643;-49
2020/12/30 01:17:00;;;;;;;0.22;0.10;;;5.30;99.90;;;;;;5030977;28;20040;-52
2020/12/30 01:19:26;;;;;;;0.20;0.00;;;5.30;99.90;;;;;;5031091;28;20120;-50
2020/12/30 01:21:52;;;;;;;2.38;0.10;;;5.30;99.90;;;;;;5031161;28;20116;-56
2020/12/30 01:24:18;;;;;;;0.10;0.00;;;5.30;99.90;;;;;;5031176;28;20038;-54
2020/12/30 01:26:45;;;;;;;0.35;0.00;;;5.30;99.90;;;;;;5029681;28;20099;-52
2020/12/30 01:29:12;;;;;;;2.60;0.10;;;5.30;99.90;;;;;;5030878;28;20543;-57
2020/12/30 01:31:38;;;;;;;0.38;0.10;;;5.40;99.90;;;;;;5030750;28;20371;-48
2020/12/30 01:34:05;;;;;;;0.47;0.00;;;5.40;99.90;;;;;;5030850;28;20044;-58
2020/12/30 01:36:32;;;;;;;0.20;0.00;;;5.30;99.90;;;;;;5030855;28;20044;-54
2020/12/30 01:38:58;;;;;;;0.28;0.10;;;5.30;99.90;;;;;;5030823;28;20036;-56
2020/12/30 01:41:24;;;;;;;2.20;0.10;;;5.30;99.90;;;;;;5031063;28;20029;-54
2020/12/30 01:43:59;;;;;;;0.30;0.00;;;5.30;99.90;;;;;;5030713;28;20025;-53
2020/12/30 01:46:33;;;;;;;1.00;0.10;;;5.20;99.90;;;;;;5030774;28;20117;-54
2020/12/30 01:49:01;;;;;;;0.55;0.10;;;5.20;99.90;;;;;;5030730;28;20525;-53
2020/12/30 01:51:28;;;;;;;0.20;0.10;;;5.20;99.90;;;;;;5029372;28;20027;-54
2020/12/30 01:53:54;;;;;;;2.05;0.20;;;5.10;99.90;;;;;;5030579;28;20037;-51
2020/12/30 01:56:23;;;;;;;2.70;0.30;;;5.00;99.90;;;;;;5030487;28;20118;-52
2020/12/30 01:58:49;;;;;;;0.68;0.05;;;5.00;99.90;;;;;;5030110;28;20460;-55
2020/12/30 02:01:15;;;;;;;1.42;0.10;;;4.90;99.90;;;;;;5030445;28;20463;-54
2020/12/30 02:03:44;;;;;;;0.40;0.10;;;4.90;99.90;;;;;;5029093;28;20033;-56
2020/12/30 02:06:09;;;;;;;0.20;0.10;;;5.00;99.90;;;;;;5030435;28;20420;-56
2020/12/30 02:08:35;;;;;;;0.73;0.10;;;5.00;99.90;;;;;;5030067;28;20033;-52
2020/12/30 02:11:01;;;;;;;1.33;0.20;;;5.00;99.90;;;;;;5030101;28;20033;-55
2020/12/30 02:13:27;;;;;;;0.68;0.10;;;5.00;99.90;;;;;;5030230;28;20052;-51
2020/12/30 02:15:53;;;;;;;0.63;0.10;;;4.90;99.90;;;;;;5030357;28;20029;-56
2020/12/30 02:18:18;;;;;;;0.45;0.15;;;5.00;99.90;;;;;;5030385;28;20180;-51
2020/12/30 02:20:44;;;;;;;0.30;0.08;;;5.00;99.90;;;;;;5029999;28;20049;-52
2020/12/30 02:23:12;;;;;;;1.17;0.10;;;5.00;99.90;;;;;;5029970;28;20079;-52
2020/12/30 02:25:38;;;;;;;2.42;0.10;;;5.00;99.90;;;;;;5029766;28;20060;-54
2020/12/30 02:28:04;;;;;;;0.20;0.10;;;5.00;99.90;;;;;;5030038;28;20075;-52
2020/12/30 02:30:30;;;;;;;0.85;0.10;;;5.00;99.90;;;;;;5030055;28;20157;-52
2020/12/30 02:32:55;;;;;;;0.20;0.10;;;5.00;99.90;;;;;;5029874;28;20481;-52
2020/12/30 02:35:23;;;;;;;2.13;0.10;;;4.90;99.90;;;;;;5030095;28;20363;-53
2020/12/30 02:37:49;;;;;;;0.20;0.10;;;4.90;99.90;;;;;;5029740;28;20032;-56
2020/12/30 02:40:15;;;;;;;0.40;0.10;;;4.90;99.90;;;;;;5029579;28;20052;-53
2020/12/30 02:42:41;;;;;;;1.10;0.10;;;4.90;99.90;;;;;;5029857;28;20201;-50
2020/12/30 02:45:08;;;;;;;0.63;0.10;;;4.90;99.90;;;;;;5029899;28;20413;-51
2020/12/30 02:47:35;;;;;;;0.77;0.20;;;4.90;99.90;;;;;;5028040;28;20129;-54
2020/12/30 02:50:02;;;;;;;1.40;0.20;;;4.80;99.90;;;;;;5029457;28;20030;-50
2020/12/30 02:52:28;;;;;;;1.42;0.20;;;4.80;99.90;;;;;;5029316;28;20162;-54
2020/12/30 02:54:54;;;;;;;0.50;0.10;;;4.80;99.90;;;;;;5029145;28;20029;-56
2020/12/30 02:57:20;;;;;;;0.85;0.20;;;4.70;99.90;;;;;;5028842;28;20025;-51
2020/12/30 02:59:46;;;;;;;1.92;0.15;;;4.80;99.90;;;;;;5029429;28;20033;-52
2020/12/30 03:02:12;;;;;;;1.40;0.10;;;4.80;99.90;;;;;;5029356;28;20040;-55
2020/12/30 03:04:38;;;;;;;2.08;0.15;;;4.80;99.90;;;;;;5029509;28;20029;-58
2020/12/30 03:07:04;;;;;;;0.82;0.17;;;4.80;99.90;;;;;;5029040;28;20034;-53
2020/12/30 03:09:30;;;;;;;0.70;0.20;;;4.80;99.90;;;;;;5028811;28;20522;-52
2020/12/30 03:11:56;;;;;;;2.45;0.20;;;4.80;99.90;;;;;;5029183;28;20037;-52
2020/12/30 03:14:22;;;;;;;1.60;0.20;;;4.70;99.90;;;;;;5028941;28;20037;-54
2020/12/30 03:16:48;;;;;;;1.30;0.10;;;4.70;99.90;;;;;;5029117;28;20126;-51
2020/12/30 03:19:14;;;;;;;0.50;0.10;;;4.60;99.90;;;;;;5029088;28;20030;-52
2020/12/30 03:21:43;;;;;;;0.60;0.20;;;4.70;99.90;;;;;;5029042;28;20056;-53
2020/12/30 03:24:09;;;;;;;1.02;0.10;;;4.70;99.90;;;;;;5028738;28;20030;-52
2020/12/30 03:26:35;;;;;;;0.65;0.20;;;4.70;99.90;;;;;;5028944;28;20039;-50
2020/12/30 03:29:01;;;;;;;1.67;0.20;;;4.70;99.90;;;;;;5028947;28;20351;-56
2020/12/30 03:31:30;;;;;;;2.28;0.30;;;4.70;99.90;;;;;;5028847;28;20428;-52
2020/12/30 03:33:57;;;;;;;1.98;0.40;;;4.70;99.90;;;;;;5028688;28;20034;-55
2020/12/30 03:36:24;;;;;;;1.05;0.30;;;4.70;99.90;;;;;;5029026;28;20036;-55
2020/12/30 03:38:50;;;;;;;3.65;0.20;;;4.70;99.90;;;;;;5028882;28;20060;-57
2020/12/30 03:41:16;;;;;;;3.72;0.22;;;4.70;99.90;;;;;;5028790;28;20125;-49
2020/12/30 03:43:42;;;;;;;1.30;0.30;;;4.70;99.90;;;;;;5028585;28;20136;-48
2020/12/30 03:46:08;;;;;;;1.80;0.47;;;4.70;99.90;;;;;;5028716;28;20112;-54
2020/12/30 03:48:33;;;;;;;0.70;0.20;;;4.70;99.90;;;;;;5028565;28;20029;-53
2020/12/30 03:50:59;;;;;;;1.92;0.25;;;4.70;99.90;;;;;;5028814;28;20577;-56
2020/12/30 03:53:26;;;;;;;0.77;0.15;;;4.70;99.90;;;;;;5028542;28;20021;-55
2020/12/30 03:55:52;;;;;;;3.50;0.30;;;4.70;99.90;;;;;;5028564;28;20045;-54
2020/12/30 03:58:18;;;;;;;3.00;0.20;;;4.70;99.90;;;;;;5028321;28;20053;-56
2020/12/30 04:00:43;;;;;;;3.13;0.20;;;4.70;99.90;;;;;;5028712;28;20039;-52
2020/12/30 04:03:09;;;;;;;0.63;0.10;;;4.70;99.90;;;;;;5028556;28;20428;-51
2020/12/30 04:05:35;;;;;;;1.23;0.10;;;4.70;99.90;;;;;;5028406;28;20092;-53
2020/12/30 04:08:01;;;;;;;0.80;0.20;;;4.70;99.90;;;;;;5027218;28;20038;-54
2020/12/30 04:10:26;;;;;;;1.92;0.17;;;4.70;99.90;;;;;;5031481;28;20060;-56
2020/12/30 04:12:53;;;;;;;1.00;0.17;;;4.70;99.90;;;;;;5031119;28;20541;-52
2020/12/30 04:15:18;;;;;;;0.77;0.20;;;4.70;99.90;;;;;;5032529;28;20064;-48
2020/12/30 04:17:44;;;;;;;1.50;0.40;;;4.70;99.90;;;;;;5032166;28;20071;-55
2020/12/30 04:20:10;;;;;;;0.50;0.20;;;4.70;99.90;;;;;;5032699;28;20029;-54
2020/12/30 04:22:36;;;;;;;0.50;0.20;;;4.70;99.90;;;;;;5032132;28;20466;-52
2020/12/30 04:25:02;;;;;;;0.70;0.20;;;4.60;99.90;;;;;;5030886;28;20033;-51
2020/12/30 04:27:28;;;;;;;1.50;0.30;;;4.60;99.90;;;;;;5030932;28;20022;-56
2020/12/30 04:29:53;;;;;;;0.68;0.20;;;4.60;99.90;;;;;;5032679;28;20110;-56
2020/12/30 04:32:19;;;;;;;2.53;0.30;;;4.60;99.90;;;;;;5032034;28;20033;-57
2020/12/30 04:34:45;;;;;;;2.47;0.30;;;4.60;99.90;;;;;;5032108;28;20076;-52
2020/12/30 04:37:14;;;;;;;0.98;0.30;;;4.60;99.90;;;;;;5031940;28;20438;-55
2020/12/30 04:39:41;;;;;;;4.78;1.10;;;4.60;99.90;;;;;;5032483;28;20025;-54
2020/12/30 04:42:08;;;;;;;4.47;1.38;;;4.60;99.90;;;;;;5031737;28;20075;-51
2020/12/30 04:44:38;;;;;;;3.92;1.58;;;4.60;99.90;;;;;;5031790;28;20116;-52
2020/12/30 04:47:03;;;;;;;2.35;1.08;;;4.60;99.90;;;;;;5031739;28;20120;-57
2020/12/30 04:49:30;;;;;;;4.40;1.52;;;4.70;99.90;;;;;;5031551;28;20168;-52
2020/12/30 04:51:57;;;;;;;1.33;0.20;;;4.70;99.90;;;;;;5031913;28;20053;-53
2020/12/30 04:54:23;;;;;;;2.60;0.30;;;4.70;99.90;;;;;;5031623;28;20095;-54
2020/12/30 04:57:02;;;;;;;0.90;0.30;;;4.80;99.90;;;;;;5031520;28;20025;-58
2020/12/30 04:59:40;;;;;;;0.55;0.10;;;4.80;99.90;;;;;;5042808;28;20497;-56
2020/12/30 05:02:10;;;;;;;0.65;0.20;;;4.80;99.90;;;;;;5031459;28;20045;-53
2020/12/30 05:04:38;;;;;;;0.70;0.30;;;4.70;99.90;;;;;;5031798;28;20041;-56
2020/12/30 05:07:12;;;;;;;1.05;0.40;;;4.70;99.90;;;;;;5031519;28;20080;-53
2020/12/30 05:09:40;;;;;;;0.80;0.30;;;4.60;99.90;;;;;;5031789;28;20164;-47
2020/12/30 05:12:14;;;;;;;4.00;0.60;;;4.60;99.90;;;;;;5031334;28;20033;-54
2020/12/30 05:14:41;;;;;;;1.10;0.38;;;4.60;99.90;;;;;;5031289;28;20033;-57
2020/12/30 05:17:08;;;;;;;1.30;0.40;;;4.60;99.90;;;;;;5031452;28;20033;-56
2020/12/30 05:19:34;;;;;;;1.15;0.22;;;4.60;99.90;;;;;;5030959;28;20030;-54
2020/12/30 05:22:00;;;;;;;1.75;0.40;;;4.60;99.90;;;;;;5030966;28;20493;-50
2020/12/30 05:24:28;;;;;;;1.88;0.40;;;4.60;99.90;;;;;;5031097;28;20033;-58
2020/12/30 05:26:55;;;;;;;0.52;0.20;;;4.60;99.90;;;;;;5031308;28;20025;-54
2020/12/30 05:29:24;;;;;;;4.03;0.32;;;4.60;99.90;;;;;;5031217;28;20048;-55
2020/12/30 05:31:51;;;;;;;1.77;0.30;;;4.60;99.90;;;;;;5030987;28;20037;-56
2020/12/30 05:34:19;;;;;;;1.17;0.25;;;4.60;99.90;;;;;;5030963;28;20393;-58
2020/12/30 05:36:46;;;;;;;1.85;0.75;;;4.60;99.90;;;;;;5030713;28;20449;-52
2020/12/30 05:39:28;;;;;;;1.00;0.32;;;4.60;99.90;;;;;;5031236;28;20094;-54
2020/12/30 05:42:16;;;;;;;1.63;0.40;;;4.60;99.90;;;;;;5030769;28;20116;-49
2020/12/30 05:44:46;;;;;;;1.63;0.50;;;4.70;99.90;;;;;;5030660;28;20034;-52
2020/12/30 05:47:19;;;;;;;2.70;0.50;;;4.70;99.90;;;;;;5030670;28;20049;-55
2020/12/30 05:49:48;;;;;;;1.40;0.52;;;4.70;99.90;;;;;;5030560;28;20099;-50
2020/12/30 05:52:16;;;;;;;1.73;0.40;;;4.70;99.90;;;;;;5030411;28;20424;-56
2020/12/30 05:54:56;;;;;;;1.10;0.40;;;4.60;99.90;;;;;;5030503;28;20047;-53
2020/12/30 05:57:30;;;;;;;3.55;0.63;;;4.60;99.90;;;;;;5030417;28;20041;-54
2020/12/30 06:00:05;;;;;;;3.92;0.30;;;4.70;99.90;;;;;;5030292;28;20084;-51
2020/12/30 06:02:32;;;;;;;1.83;0.60;;;4.70;99.90;;;;;;5030382;28;20037;-57
2020/12/30 06:05:08;;;;;;;0.90;0.30;;;4.60;99.90;;;;;;5028966;28;20025;-55
2020/12/30 06:07:37;;;;;;;0.90;0.30;;;4.70;99.90;;;;;;5030264;28;20448;-56
2020/12/30 06:10:04;;;;;;;1.25;0.30;;;4.70;99.90;;;;;;5028761;28;20465;-49
2020/12/30 06:12:31;;;;;;;1.10;0.32;;;4.70;99.90;;;;;;5030160;28;20037;-49
2020/12/30 06:14:57;;;;;;;1.55;0.30;;;4.70;99.90;;;;;;5029931;28;20048;-55
2020/12/30 06:17:27;;;;;;;2.05;0.30;;;4.70;99.90;;;;;;5028650;28;20036;-55
2020/12/30 06:19:54;;;;;;;1.00;0.40;;;4.70;99.90;;;;;;5029990;28;20116;-52
2020/12/30 06:22:21;;;;;;;1.85;0.20;;;4.70;99.90;;;;;;5029894;28;20040;-55
2020/12/30 06:24:55;;;;;;;1.83;0.30;;;4.70;99.90;;;;;;5028482;28;20431;-50
2020/12/30 06:27:26;;;;;;;0.95;0.30;;;4.70;99.90;;;;;;5029709;28;20056;-54
2020/12/30 06:29:57;;;;;;;1.08;0.32;;;4.70;99.90;;;;;;5028448;28;20040;-54
2020/12/30 06:32:27;;;;;;;2.15;0.30;;;4.70;99.90;;;;;;5028938;28;20056;-56
2020/12/30 06:34:53;;;;;;;5.65;0.40;;;4.70;99.90;;;;;;5029707;28;20030;-58
2020/12/30 06:37:30;;;;;;;1.05;0.30;;;4.70;99.90;;;;;;5029668;28;20040;-56
2020/12/30 06:40:27;;;;;;;2.30;0.43;;;4.60;99.90;;;;;;5029502;28;20045;-56
2020/12/30 06:42:58;;;;;;;1.45;0.40;;;4.60;99.90;;;;;;5029511;28;20154;-54
2020/12/30 06:45:42;;;;;;;1.98;0.60;;;4.60;99.90;;;;;;5030024;28;20029;-52
2020/12/30 06:48:11;;;;;;;1.40;0.40;;;4.50;99.90;;;;;;5029238;28;20034;-57
2020/12/30 06:50:38;;;;;;;1.88;0.55;;;4.50;99.90;;;;;;5029525;28;20412;-55
2020/12/30 06:53:23;;;;;;;8.10;0.75;;;4.60;99.90;;;;;;5029360;28;20025;-50
2020/12/30 06:55:49;;;;;;;1.90;0.90;;;4.50;99.90;;;;;;5029314;28;20509;-57
2020/12/30 06:58:43;;;;;;;1.45;0.73;;;4.50;99.90;;;;;;5029249;28;20126;-52
2020/12/30 07:01:17;;;;;;;2.70;0.50;;;4.50;99.90;;;;;;5029244;28;20110;-56
2020/12/30 07:03:44;;;;;;;1.70;1.00;;;4.60;99.90;;;;;;5027946;28;20091;-54
2020/12/30 07:06:36;;;;;;;3.72;1.00;;;4.60;99.90;;;;;;5029128;28;20496;-56
2020/12/30 07:09:06;;;;;;;3.80;1.10;;;4.60;99.90;;;;;;5027719;28;20041;-58
2020/12/30 07:11:42;;;;;;;1.30;0.57;;;4.50;99.90;;;;;;5026102;28;20026;-55
2020/12/30 07:14:17;;;;;;;3.92;0.70;;;4.50;99.90;;;;;;5029137;28;20077;-52
2020/12/30 07:16:53;;;;;;;1.77;0.70;;;4.50;99.90;;;;;;5028021;28;20041;-52
2020/12/30 07:19:28;;;;;;;1.42;0.45;;;4.50;99.90;;;;;;5028217;28;20168;-56
2020/12/30 07:22:06;;;;;;;2.30;0.80;;;4.40;99.90;;;;;;5028943;28;20717;-54
2020/12/30 07:24:52;;;;;;;3.42;0.85;;;4.40;99.90;;;;;;5028705;28;20601;-53
2020/12/30 07:27:18;;;;;;;2.78;0.60;;;4.40;99.90;;;;;;5028728;28;20108;-56
2020/12/30 07:29:46;;;;;;;1.52;0.40;;;4.40;99.90;;;;;;5028705;28;20539;-53
2020/12/30 07:32:13;;;;;;;4.03;0.60;;;4.30;99.90;;;;;;5028749;28;20047;-54
2020/12/30 07:34:47;;;;;;;5.68;0.40;;;4.30;99.90;;;;;;5028906;28;20155;-57
2020/12/30 07:37:14;;;;;;;1.17;0.40;;;4.40;99.90;;;;;;5028669;28;20494;-52
2020/12/30 07:39:45;;;;;;;1.52;0.60;;;4.40;99.90;;;;;;5028509;28;20555;-55
2020/12/30 07:42:13;;;;;;;2.05;0.40;;;4.40;99.90;;;;;;5028564;28;20497;-52
2020/12/30 07:44:44;;;;;;;2.08;0.45;;;4.50;99.90;;;;;;5028204;28;20078;-55
2020/12/30 07:47:09;;;;;;;2.25;0.40;;;4.50;99.90;;;;;;5028431;28;20041;-53
2020/12/30 07:49:35;;;;;;;1.52;0.35;;;4.50;99.90;;;;;;5004625;23;20426;-54
2020/12/30 07:52:03;;;;;;;1.42;0.35;;;4.60;99.90;;;;;;5008622;28;20034;-55
2020/12/30 07:54:29;;;;;;;1.05;0.30;;;4.70;99.90;;;;;;5008779;28;20058;-49
2020/12/30 07:57:08;;;;;;;1.48;0.70;;;4.70;99.90;;;;;;5008518;28;20137;-57
2020/12/30 07:59:35;;;;;;;2.78;0.88;;;4.80;99.90;;;;;;5008830;28;20030;-54
2020/12/30 08:02:11;;;;;;;2.70;0.63;;;4.90;99.90;;;;;;5007666;28;20061;-55
2020/12/30 08:04:39;;;;;;;3.20;0.70;;;4.90;99.90;;;;;;5008164;28;20410;-57
2020/12/30 08:07:06;;;;;;;1.77;0.60;;;5.00;99.90;;;;;;5008325;28;20046;-54
2020/12/30 08:09:34;;;;;;;1.40;0.55;;;5.10;99.90;;;;;;5008651;28;20099;-53
2020/12/30 08:12:05;;;;;;;1.02;0.50;;;5.10;99.90;;;;;;5008630;28;20120;-53
2020/12/30 08:14:32;;;;;;;1.27;0.40;;;5.20;99.90;;;;;;5008305;28;20030;-54
2020/12/30 08:17:06;;;;;;;1.80;0.60;;;5.20;99.90;;;;;;5007015;28;20493;-56
2020/12/30 08:19:48;;;;;;;1.00;0.40;;;5.20;99.90;;;;;;5008629;28;20108;-56
2020/12/30 08:22:29;;;;;;;3.97;1.05;;;5.20;99.90;;;;;;5008752;28;20041;-56
2020/12/30 08:24:57;;;;;;;3.45;1.00;;;5.30;99.90;;;;;;5008448;28;20038;-56
2020/12/30 08:27:27;;;;;;;5.05;0.80;;;5.40;99.90;;;;;;5008136;28;20034;-55
2020/12/30 08:29:54;;;;;;;2.90;1.30;;;5.40;99.90;;;;;;5008753;28;20030;-58
2020/12/30 08:32:32;;;;;;;3.10;0.90;;;5.40;99.90;;;;;;5008372;28;20041;-55
2020/12/30 08:35:03;;;;;;;3.55;1.33;;;5.50;99.90;;;;;;5008331;28;20029;-54
2020/12/30 08:37:32;;;;;;;4.07;1.48;;;5.50;99.90;;;;;;5008427;28;20034;-52
2020/12/30 08:40:04;;;;;;;4.40;1.20;;;5.50;99.90;;;;;;5008277;28;20501;-53
2020/12/30 08:42:39;;;;;;;3.70;1.73;;;5.60;99.90;;;;;;5008247;28;20041;-52
2020/12/30 08:45:07;;;;;;;3.10;1.42;;;5.70;99.90;;;;;;5008449;28;20045;-55
2020/12/30 08:47:38;;;;;;;2.78;1.20;;;5.70;99.90;;;;;;5008079;28;20029;-52
2020/12/30 08:50:08;;;;;;;3.00;1.25;;;5.80;99.90;;;;;;5008077;28;20065;-55
2020/12/30 08:52:43;;;;;;;2.03;0.70;;;5.70;99.90;;;;;;5008289;28;20401;-55
2020/12/30 08:55:10;;;;;;;2.22;0.65;;;5.70;99.90;;;;;;5008737;28;20038;-54
2020/12/30 08:57:42;;;;;;;3.45;1.08;;;5.80;99.90;;;;;;5011734;28;20030;-50
2020/12/30 09:00:18;;;;;;;5.70;1.17;;;5.90;99.90;;;;;;5011761;28;20045;-58
2020/12/30 09:02:54;;;;;;;5.18;1.60;;;5.90;99.90;;;;;;5011624;28;20038;-51
2020/12/30 09:05:28;;;;;;;3.90;1.42;;;6.00;99.90;;;;;;5011580;28;20030;-56
2020/12/30 09:07:54;;;;;;;3.15;1.45;;;6.10;99.90;;;;;;5011601;28;20088;-50
2020/12/30 09:10:20;;;;;;;8.65;3.42;;;6.20;99.90;;;;;;5011540;28;20389;-53
2020/12/30 09:12:47;;;;;;;15.30;5.15;;;6.20;99.90;;;;;;5011323;28;20030;-54
2020/12/30 09:15:14;;;;;;;7.53;3.05;;;6.20;99.90;;;;;;5011575;28;20449;-57
2020/12/30 09:17:41;;;;;;;5.95;3.08;;;6.30;99.90;;;;;;5011284;28;20488;-54
2020/12/30 09:20:10;;;;;;;5.78;2.88;;;6.50;99.90;;;;;;5011668;28;20029;-51
2020/12/30 09:22:36;;;;;;;10.90;2.70;;;6.60;99.90;;;;;;5011607;28;20038;-58
2020/12/30 09:25:03;;;;;;;8.38;2.92;;;6.60;99.90;;;;;;5011346;28;20112;-55
2020/12/30 09:27:35;;;;;;;5.25;2.45;;;6.70;99.90;;;;;;5011239;28;20038;-53
2020/12/30 09:30:09;;;;;;;4.88;2.65;;;6.60;99.90;;;;;;5011009;28;20022;-54
2020/12/30 09:32:34;;;;;;;6.43;2.53;;;6.60;99.90;;;;;;5011286;28;20351;-53
2020/12/30 09:35:01;;;;;;;5.38;2.05;;;6.60;99.90;;;;;;5011208;28;20037;-54
2020/12/30 09:37:27;;;;;;;3.30;1.38;;;6.60;99.90;;;;;;5011174;28;20038;-50
2020/12/30 09:40:22;;;;;;;2.45;1.20;;;6.50;99.90;;;;;;5010952;28;20030;-51
2020/12/30 09:42:49;;;;;;;3.30;1.20;;;6.50;99.90;;;;;;5006177;28;20045;-57
2020/12/30 09:45:17;;;;;;;3.42;1.20;;;6.50;99.90;;;;;;5011009;28;20044;-51
2020/12/30 09:47:43;;;;;;;4.03;1.00;;;6.50;99.90;;;;;;5010698;28;20124;-49
2020/12/30 09:50:11;;;;;;;3.10;0.95;;;6.50;99.90;;;;;;5010879;28;20057;-50
2020/12/30 09:52:42;;;;;;;4.82;1.15;;;6.60;99.90;;;;;;5010654;28;20061;-55
2020/12/30 09:55:11;;;;;;;3.03;1.42;;;6.70;99.90;;;;;;5010630;28;20196;-49
2020/12/30 09:57:38;;;;;;;3.20;1.10;;;6.80;99.90;;;;;;5010512;28;20378;-52
2020/12/30 10:00:06;;;;;;;4.75;1.55;;;6.80;99.90;;;;;;5010763;28;20037;-56
2020/12/30 10:02:31;;;;;;;3.38;1.67;;;6.90;99.90;;;;;;5010448;28;20022;-52
2020/12/30 10:04:57;;;;;;;4.97;1.40;;;6.90;99.90;;;;;;5010448;28;20041;-56
2020/12/30 10:07:24;;;;;;;3.92;1.40;;;7.00;99.90;;;;;;5010499;28;20030;-49
2020/12/30 10:09:52;;;;;;;3.85;1.58;;;6.90;99.90;;;;;;5010616;28;20040;-57
2020/12/30 10:12:21;;;;;;;3.13;1.40;;;6.80;99.90;;;;;;5010544;28;20056;-57
2020/12/30 10:14:47;;;;;;;3.08;1.30;;;6.90;99.90;;;;;;5010549;28;20033;-53
2020/12/30 10:17:13;;;;;;;3.60;1.17;;;6.90;99.90;;;;;;5010744;28;20049;-56
2020/12/30 10:19:39;;;;;;;3.00;1.50;;;6.80;99.90;;;;;;5009743;28;20041;-55
2020/12/30 10:22:12;;;;;;;3.58;1.30;;;6.90;99.90;;;;;;5007089;28;20076;-51
2020/12/30 10:24:45;;;;;;;2.63;1.30;;;7.00;99.90;;;;;;4990914;28;20333;-54
2020/12/30 10:27:15;;;;;;;3.22;1.35;;;7.00;99.90;;;;;;4990697;28;20101;-57
2020/12/30 10:29:41;;;;;;;2.35;0.98;;;7.00;99.90;;;;;;4998693;28;20062;-56
2020/12/30 10:32:07;;;;;;;3.15;1.23;;;7.00;99.90;;;;;;5013213;28;20097;-54
2020/12/30 10:34:35;;;;;;;2.63;1.55;;;7.00;99.90;;;;;;5026845;28;20123;-54
2020/12/30 10:37:04;;;;;;;4.20;1.48;;;7.00;99.90;;;;;;5020790;28;20042;-51
2020/12/30 10:39:31;;;;;;;4.38;1.85;;;7.10;99.90;;;;;;5010319;28;20037;-54
2020/12/30 10:41:58;;;;;;;3.70;1.70;;;7.10;99.90;;;;;;5010049;28;20034;-51
2020/12/30 10:44:24;;;;;;;2.80;1.23;;;7.20;99.90;;;;;;5021652;28;20034;-52
2020/12/30 10:46:50;;;;;;;3.10;1.17;;;7.10;99.90;;;;;;5009653;28;20145;-55
2020/12/30 10:49:16;;;;;;;3.42;1.77;;;7.00;99.90;;;;;;5003618;28;20046;-51
2020/12/30 10:51:51;;;;;;;2.42;1.50;;;7.00;99.90;;;;;;4999737;28;20120;-51
2020/12/30 10:54:17;;;;;;;4.35;1.50;;;7.00;99.90;;;;;;5007805;28;20041;-51
2020/12/30 10:56:54;;;;;;;2.95;1.55;;;7.10;99.90;;;;;;5009528;28;20184;-55
2020/12/30 10:59:21;;;;;;;3.10;1.95;;;7.10;99.90;;;;;;5001030;28;20045;-57
2020/12/30 11:01:53;;;;;;;4.32;1.30;;;7.10;99.90;;;;;;4996771;28;20466;-55
2020/12/30 11:04:20;;;;;;;3.17;1.30;;;7.20;99.90;;;;;;5002927;28;20034;-53
2020/12/30 11:06:46;;;;;;;2.88;1.10;;;7.10;99.90;;;;;;5008136;28;20069;-54
2020/12/30 11:09:12;;;;;;;1.52;0.80;;;7.10;99.90;;;;;;5008676;28;20053;-55
2020/12/30 11:11:40;;;;;;;2.90;1.42;;;7.20;99.90;;;;;;5005845;28;20037;-51
2020/12/30 11:14:06;;;;;;;2.03;1.23;;;7.20;99.90;;;;;;4998293;28;20181;-56
2020/12/30 11:16:31;;;;;;;2.17;1.17;;;7.20;99.90;;;;;;5003949;28;20418;-55
2020/12/30 11:18:57;;;;;;;2.28;1.33;;;7.30;99.90;;;;;;5002228;28;20038;-53
2020/12/30 11:21:23;;;;;;;4.50;1.30;;;7.30;99.90;;;;;;5018061;28;20508;-54
2020/12/30 11:23:49;;;;;;;3.08;1.20;;;7.40;99.90;;;;;;5012031;28;20125;-57
2020/12/30 11:26:15;;;;;;;2.20;1.38;;;7.50;99.90;;;;;;5009355;28;20581;-51
2020/12/30 11:28:40;;;;;;;5.22;1.88;;;7.50;99.90;;;;;;5008324;28;20128;-56
2020/12/30 11:31:07;;;;;;;6.95;2.00;;;7.60;99.90;;;;;;5000598;28;20519;-55
2020/12/30 11:33:34;;;;;;;2.85;1.23;;;7.60;99.90;;;;;;5004135;28;20037;-53
2020/12/30 11:35:59;;;;;;;3.72;1.13;;;7.60;99.90;;;;;;5006607;28;20040;-54
2020/12/30 11:38:25;;;;;;;2.80;1.20;;;7.60;99.90;;;;;;5005896;28;20445;-55
2020/12/30 11:40:51;;;;;;;4.10;1.65;;;7.60;99.90;;;;;;4998213;28;20113;-50
2020/12/30 11:43:17;;;;;;;3.75;1.73;;;7.70;99.90;;;;;;5004668;28;20104;-53
2020/12/30 11:45:42;;;;;;;3.65;1.38;;;7.60;99.90;;;;;;5006378;28;20040;-52
2020/12/30 11:48:08;;;;;;;7.15;1.52;;;7.60;99.90;;;;;;4993332;28;20495;-54
2020/12/30 11:50:35;;;;;;;2.85;1.65;;;7.50;99.90;;;;;;5008723;28;20036;-54
2020/12/30 11:53:01;;;;;;;2.95;1.55;;;7.60;99.90;;;;;;5002531;28;20034;-49
2020/12/30 11:55:27;;;;;;;1.90;0.90;;;7.50;99.90;;;;;;5008653;28;20173;-53
2020/12/30 11:57:53;;;;;;;10.30;1.00;;;7.50;99.90;;;;;;5003828;28;20061;-51
2020/12/30 12:00:20;;;;;;;2.17;0.73;;;7.50;99.90;;;;;;5000611;28;20361;-54
2020/12/30 12:02:46;;;;;;;2.45;0.90;;;7.50;99.90;;;;;;5003411;28;20030;-55
2020/12/30 12:05:13;;;;;;;1.83;0.80;;;7.50;99.90;;;;;;5007905;28;20034;-54
2020/12/30 12:07:40;;;;;;;4.53;1.00;;;7.50;99.90;;;;;;5008519;28;20030;-52
2020/12/30 12:10:07;;;;;;;1.48;0.70;;;7.60;99.90;;;;;;5008528;28;20121;-55
2020/12/30 12:12:34;;;;;;;2.67;1.00;;;7.60;99.90;;;;;;5003495;28;20565;-53
2020/12/30 12:15:07;;;;;;;2.60;0.77;;;7.60;99.90;;;;;;5007707;28;20037;-56
2020/12/30 12:18:52;;;;;;;2.15;0.40;;;7.60;99.90;;;;;;5106142;27;20363;-53
2020/12/30 12:21:18;;;;;;;1.23;0.60;;;7.80;99.90;;;;;;5106011;28;20031;-54
2020/12/30 12:23:44;;;;;;;1.63;0.50;;;7.80;99.90;;;;;;5105841;28;20042;-53
2020/12/30 12:26:09;;;;;;;1.27;0.22;;;7.80;99.90;;;;;;5105382;28;20038;-53
2020/12/30 12:28:44;;;;;;;1.05;0.32;;;7.80;99.90;;;;;;5104708;28;20032;-58
2020/12/30 12:31:17;;;;;;;2.33;0.40;;;7.80;99.90;;;;;;5104864;28;20356;-53
2020/12/30 12:33:43;;;;;;;1.30;0.40;;;7.80;99.90;;;;;;5100221;28;20075;-54
2020/12/30 12:36:13;;;;;;;2.70;0.40;;;7.80;99.90;;;;;;5105670;28;20113;-55
2020/12/30 12:38:40;;;;;;;1.30;0.47;;;7.80;99.90;;;;;;5106330;28;20218;-53
2020/12/30 12:41:06;;;;;;;0.77;0.30;;;7.90;99.90;;;;;;5104901;28;20044;-56
2020/12/30 12:43:32;;;;;;;1.45;0.25;;;8.00;99.90;;;;;;5105210;28;20024;-51
2020/12/30 12:45:57;;;;;;;0.70;0.30;;;8.00;99.90;;;;;;5104768;28;20035;-56
2020/12/30 12:48:23;;;;;;;1.90;0.20;;;7.90;99.90;;;;;;5105454;28;20039;-53
2020/12/30 12:50:49;;;;;;;0.70;0.20;;;7.90;99.90;;;;;;5104653;28;20032;-56
2020/12/30 12:53:15;;;;;;;0.52;0.20;;;7.90;99.90;;;;;;5103417;28;20561;-54
2020/12/30 12:55:40;;;;;;;1.15;0.30;;;7.90;99.90;;;;;;5105492;28;20031;-56
2020/12/30 12:58:06;;;;;;;0.70;0.30;;;7.80;99.90;;;;;;5101508;28;20222;-56
2020/12/30 13:00:32;;;;;;;0.73;0.30;;;7.80;99.90;;;;;;5101943;28;20101;-54
2020/12/30 13:02:58;;;;;;;1.52;0.30;;;7.70;99.90;;;;;;5103935;28;20027;-55
2020/12/30 13:05:24;;;;;;;0.77;0.35;;;7.60;99.90;;;;;;5104832;28;20035;-54